Roanoke Rapids, NC

6:08 AM EDT on July 26, 2014 (GMT -0400)
Roanoke Rapids Lake (KNCROANO4) Elev 138 ft | 36.47 °N, 77.73 °W | Change Station

Current weather conditions updated 6 seconds ago

Mostly Cloudy
Mostly Cloudy
70.6 °F
Feels Like 70.6 °F
N
0.0
Wind Variable Wind from East
Gusts 0.0 mph

Today is forecast to be Warmer than yesterday.

Today
High -- | Low -- °F
--% Chance of Precip.
Yesterday
High -- | Low -- °F
Precip. -- in
6:12 AM 8:21 PM
Waning Crescent, 0% visible
Pressure 30.02 in
Visibility 7.0 miles
Clouds Mostly Cloudy 2400 ft
Dew Point 68 °F
Humidity 91%
Rainfall 0.00 in
Snow Depth Not available.
UV 0 out of 12
Pollen 3.40 out of 12
Air Quality Not available.
Flu Activity Not available.
METAR KIXA 260955Z AUTO 00000KT 7SM BKN024 18/17 A3002 RMK AO2

More Conditions Fewer Conditions

Pressure 30.02 in
Visibility 7.0 miles
Clouds Mostly Cloudy 2400 ft
Dew Point 68 °F
Humidity 91%
Rainfall 0.00 in
Snow Depth Not available.
UV 0 out of 12
Pollen 3.40 out of 12
Air Quality Not available.
Flu Activity Not available.
METAR KIXA 260955Z AUTO 00000KT 7SM BKN024 18/17 A3002 RMK AO2

More Conditions Fewer Conditions

10-Day Weather Forecast

Almanac

Astronomy

Jul. 26, 2014 Rise Set
Actual Time 6:12 AM EDT 8:21 PM EDT
Civil Twilight 5:43 AM EDT 8:50 PM EDT
Nautical Twilight 5:08 AM EDT 9:26 PM EDT
Astronomical Twilight 4:29 AM EDT 10:04 PM EDT
Moon 6:01 AM EDT 7:58 PM EDT
Length of Visible Light 15h 07m
Length of Day
14h 09m
Tomorrow will be 1m 35s shorter.
Waning Crescent, 0% of the Moon is Illuminated
Today
Waning Crescent
Jul 26
New
Aug 3
First Quarter
Aug 10
Full
Aug 17
Last Quarter

Today's Extremes

State Highs State Lows

Community

WunderPhotos

Upload Photos

1,737,529 photos uploaded!

Nearby

Snow Depth

Station Depth Elevation
No new snow has been reported.

Earthquake Activity

City Distance Mag. Time & Date
No recent earthquake activity has been reported nearby.
Minimum magnitude displayed is 2.5.

Coastal Water Temperatures

Place Temperature
No Stations Reporting

Nearby Weather Stations

Station Location Temp. Dew Point Humidity Wind Precip. Elev Updated Type
Roanoke Rapids Lake, Roanoke Rapids, NC 70.6 °F 68 °F 91% East  at  0.0 mph 0.00 in / hr 138 ft 6:08 AM EDT Rapid Fire
MesoWest U59A Littleton , Roanoke Rapids, NC 69 °F 67 °F 94% North  at  1 mph 0.00 in / hr 324 ft 4:40 AM EDT MADIS
VADOT I-95_@_MP_0.5, Skippers, VA 69 °F 69 °F 100% ENE  at  0 mph 0.00 in / hr 112 ft 5:04 AM EDT MADIS
Lake Gaston, Littleton, NC 71.0 °F 70 °F 98% SE  at  1.0 mph 0.00 in / hr 220 ft 6:06 AM EDT Normal
Brink, Emporia, VA 67.7 °F 66 °F 95% NE  at  0.0 mph 0.00 in / hr 240 ft 6:08 AM EDT Normal
MATTHEWS MANORWOOD @ LAKE GASTON, Macon, NC 68.1 °F 68 °F 99% ENE  at  0.0 mph 0.00 in / hr 268 ft 5:58 AM EDT Normal

Show More Stations Show Fewer Stations